Time;durP1;ratioP1;P1;durP2;ratioP2;P2;SDS_P1;SDS_P2;PMS_P1;PMS_P2;Temp;Humidity;BMP_temperature;BMP_pressure;BME280_temperature;BME280_humidity;BME280_pressure;Samples;Min_cycle;Max_cycle;Signal;HPM_P1;HPM_P2
2022/08/13 00:01:05;;;;;;;2.35;1.20;;;23.70;62.60;;;;;;5031777;28;20053;-70
2022/08/13 00:03:32;;;;;;;3.25;1.60;;;23.60;62.70;;;;;;5031905;28;20056;-70
2022/08/13 00:06:02;;;;;;;2.80;1.70;;;23.60;62.70;;;;;;5031236;28;20029;-70
2022/08/13 00:08:28;;;;;;;2.20;1.30;;;23.60;62.70;;;;;;5031811;28;20025;-70
2022/08/13 00:10:54;;;;;;;2.67;1.20;;;23.60;62.70;;;;;;5031654;28;20451;-70
2022/08/13 00:13:20;;;;;;;2.55;1.40;;;23.60;62.80;;;;;;5031854;28;20060;-70
2022/08/13 00:15:47;;;;;;;3.92;1.20;;;23.50;62.80;;;;;;5031720;28;20021;-70
2022/08/13 00:18:18;;;;;;;1.70;1.30;;;23.60;63.00;;;;;;5031764;28;20029;-70
2022/08/13 00:20:48;;;;;;;4.95;1.38;;;23.60;63.00;;;;;;5031537;28;20049;-69
2022/08/13 00:23:15;;;;;;;4.47;1.50;;;23.50;62.80;;;;;;5046779;28;20056;-70
2022/08/13 00:25:43;;;;;;;2.25;1.20;;;23.50;62.90;;;;;;5031880;28;20090;-70
2022/08/13 00:28:09;;;;;;;3.20;1.20;;;23.50;62.90;;;;;;5031760;28;20489;-70
2022/08/13 00:30:38;;;;;;;3.22;1.30;;;23.60;63.70;;;;;;5031289;28;20029;-70
2022/08/13 00:33:11;;;;;;;2.10;1.20;;;23.60;63.00;;;;;;5031500;28;20115;-70
2022/08/13 00:35:41;;;;;;;3.58;1.30;;;23.60;63.00;;;;;;5031430;28;20486;-70
2022/08/13 00:38:13;;;;;;;1.70;0.98;;;23.60;63.60;;;;;;5030088;28;20038;-70
2022/08/13 00:40:47;;;;;;;2.58;1.20;;;23.50;63.00;;;;;;5031180;28;20029;-70
2022/08/13 00:43:14;;;;;;;1.63;0.90;;;23.50;63.40;;;;;;5031672;28;20025;-70
2022/08/13 00:45:41;;;;;;;2.47;1.20;;;23.50;63.20;;;;;;5031211;28;20056;-70
2022/08/13 00:50:55;;;;;;;1.83;0.98;;;23.40;63.60;;;;;;5079032;22;20153;-86
2022/08/13 00:53:21;;;;;;;;;;;23.40;63.30;;;;;;5091719;28;20030;-86
2022/08/13 00:55:49;;;;;;;4.50;1.23;;;23.30;63.70;;;;;;5091263;28;19908;-86
2022/08/13 00:58:16;;;;;;;5.07;1.50;;;23.30;64.20;;;;;;5073288;28;20024;-86
2022/08/13 01:00:48;;;;;;;1.80;1.20;;;23.30;64.20;;;;;;5090931;28;20063;-87
2022/08/13 01:03:16;;;;;;;3.72;1.40;;;23.30;64.40;;;;;;5091517;28;20128;-86
2022/08/13 01:05:43;;;;;;;4.18;1.58;;;23.30;64.70;;;;;;5073313;28;20054;-87
2022/08/13 01:08:10;;;;;;;2.58;1.30;;;23.20;64.80;;;;;;5091293;28;20053;-87
2022/08/13 01:10:37;;;;;;;3.72;1.40;;;23.20;65.00;;;;;;5073083;28;20052;-87
2022/08/13 01:13:09;;;;;;;2.55;1.42;;;23.20;65.00;;;;;;5072968;28;20067;-87
2022/08/13 01:15:36;;;;;;;3.75;1.65;;;23.10;65.10;;;;;;5073198;28;20039;-86
2022/08/13 01:18:02;;;;;;;4.45;1.55;;;23.10;65.10;;;;;;5093165;28;20032;-86
2022/08/13 01:20:31;;;;;;;3.33;1.50;;;23.20;65.50;;;;;;5077013;28;20059;-86
2022/08/13 01:22:58;;;;;;;3.95;1.58;;;23.10;65.50;;;;;;5095303;28;20043;-86
2022/08/13 01:25:27;;;;;;;4.07;1.60;;;23.10;65.10;;;;;;5077168;28;20024;-86
2022/08/13 01:27:53;;;;;;;3.03;1.40;;;23.10;65.50;;;;;;5095009;28;20039;-86
2022/08/13 01:30:21;;;;;;;3.65;1.40;;;23.00;65.80;;;;;;5095158;28;20035;-86
2022/08/13 01:32:48;;;;;;;2.58;1.25;;;23.00;66.00;;;;;;5095066;28;20077;-86
2022/08/13 01:35:17;;;;;;;3.17;1.70;;;22.90;66.20;;;;;;5094994;28;20028;-86
2022/08/13 01:37:45;;;;;;;4.90;1.50;;;22.90;66.50;;;;;;5095076;28;20016;-86
2022/08/13 01:40:14;;;;;;;4.45;1.60;;;22.90;66.50;;;;;;5059759;28;20477;-86
2022/08/13 01:42:42;;;;;;;2.03;1.50;;;22.90;66.40;;;;;;5093632;28;20040;-86
2022/08/13 01:45:10;;;;;;;2.90;1.50;;;22.80;66.30;;;;;;5095264;28;20039;-86
2022/08/13 01:50:30;;;;;;;4.45;1.58;;;22.80;66.60;;;;;;5076388;28;20395;-86
2022/08/13 01:53:12;;;;;;;5.53;1.70;;;22.80;66.80;;;;;;5095010;28;20055;-86
2022/08/13 01:55:52;;;;;;;4.50;1.55;;;22.70;67.00;;;;;;5060037;28;20036;-86
2022/08/13 01:58:22;;;;;;;3.53;1.83;;;22.60;67.10;;;;;;5076881;28;20024;-86
2022/08/13 02:00:54;;;;;;;3.80;1.80;;;22.50;67.20;;;;;;5094568;28;20036;-86
2022/08/13 02:03:21;;;;;;;2.22;1.52;;;22.50;67.30;;;;;;5076553;28;20426;-86
2022/08/13 02:05:49;;;;;;;4.45;1.70;;;22.50;67.30;;;;;;5094461;28;20020;-86
2022/08/13 02:08:20;;;;;;;4.07;1.47;;;22.50;67.40;;;;;;5076341;28;20028;-86
2022/08/13 02:10:48;;;;;;;2.33;1.63;;;22.50;67.50;;;;;;5076013;28;20035;-86
2022/08/13 02:13:17;;;;;;;5.25;2.30;;;22.40;67.30;;;;;;5094318;28;20035;-86
2022/08/13 02:15:45;;;;;;;3.85;1.77;;;22.50;67.40;;;;;;5094095;28;20102;-86
2022/08/13 02:18:20;;;;;;;4.38;1.75;;;22.50;67.40;;;;;;5094260;28;20028;-86
2022/08/13 02:20:49;;;;;;;2.85;1.58;;;22.40;67.50;;;;;;5093929;28;20026;-86
2022/08/13 02:23:16;;;;;;;;;;;22.40;67.50;;;;;;5094670;28;20032;-86
2022/08/13 02:25:45;;;;;;;4.47;1.60;;;22.40;67.60;;;;;;5093977;28;19954;-87
2022/08/13 02:28:14;;;;;;;4.25;1.80;;;22.40;67.70;;;;;;5075937;28;20469;-86
2022/08/13 02:30:42;;;;;;;2.38;1.50;;;22.40;67.80;;;;;;5075038;28;20016;-87
2022/08/13 02:33:11;;;;;;;2.92;1.55;;;22.30;67.90;;;;;;5093962;28;20024;-87
2022/08/13 02:35:37;;;;;;;5.80;2.00;;;22.30;68.10;;;;;;5075754;28;20035;-86
2022/08/13 02:38:05;;;;;;;3.60;1.60;;;22.30;68.10;;;;;;5093833;28;20526;-86
2022/08/13 02:43:16;;;;;;;4.28;1.92;;;22.30;68.30;;;;;;5075694;28;20055;-86
2022/08/13 02:45:46;;;;;;;4.45;1.80;;;22.30;68.70;;;;;;5093644;28;20028;-86
2022/08/13 02:48:12;;;;;;;4.95;2.00;;;22.20;68.60;;;;;;5093578;28;20111;-86
2022/08/13 02:50:43;;;;;;;5.50;2.25;;;22.30;68.70;;;;;;5093231;28;20112;-86
2022/08/13 02:53:13;;;;;;;4.45;1.80;;;22.20;68.60;;;;;;5075535;28;20392;-86
2022/08/13 02:55:41;;;;;;;3.67;2.15;;;22.20;68.60;;;;;;5075112;28;20074;-87
2022/08/13 02:58:08;;;;;;;4.93;1.92;;;22.30;68.60;;;;;;5058847;28;20032;-87
2022/08/13 03:00:35;;;;;;;3.65;1.95;;;22.20;68.60;;;;;;5075116;28;20487;-86
2022/08/13 03:03:04;;;;;;;3.83;2.25;;;22.20;68.90;;;;;;5075460;28;20035;-86
2022/08/13 03:05:31;;;;;;;3.47;2.08;;;22.20;69.20;;;;;;5093332;28;20020;-86
2022/08/13 03:07:57;;;;;;;5.68;1.95;;;22.20;69.50;;;;;;5058322;28;20032;-86
2022/08/13 03:10:25;;;;;;;4.38;1.95;;;22.20;69.50;;;;;;5093158;28;20032;-86
2022/08/13 03:12:59;;;;;;;6.95;2.08;;;22.10;69.50;;;;;;5093154;28;20472;-87
2022/08/13 03:15:27;;;;;;;4.00;1.90;;;22.10;69.80;;;;;;5058499;28;20056;-86
2022/08/13 03:17:52;;;;;;;4.60;1.70;;;22.10;70.10;;;;;;5074883;28;20028;-86
2022/08/13 03:20:18;;;;;;;3.55;1.80;;;22.00;70.20;;;;;;5074569;28;20058;-86
2022/08/13 03:22:54;;;;;;;4.15;2.20;;;22.00;70.50;;;;;;5093111;28;20028;-86
2022/08/13 03:25:22;;;;;;;3.45;1.90;;;21.80;70.60;;;;;;5093187;28;20488;-86
2022/08/13 03:27:50;;;;;;;6.72;2.10;;;21.70;71.00;;;;;;5092949;28;20032;-86
2022/08/13 03:30:21;;;;;;;3.38;2.00;;;21.70;71.30;;;;;;5093100;28;20074;-88
2022/08/13 03:32:52;;;;;;;6.35;2.17;;;21.60;71.50;;;;;;5074130;28;20101;-89
2022/08/13 03:35:38;;;;;;;4.45;1.70;;;21.60;71.80;;;;;;5061074;28;20043;-83
2022/08/13 03:38:10;;;;;;;3.55;2.10;;;21.60;72.10;;;;;;5092922;28;20059;-83
2022/08/13 03:43:21;;;;;;;5.13;2.10;;;21.50;72.60;;;;;;5078111;28;20035;-83
2022/08/13 03:45:47;;;;;;;6.32;2.03;;;21.40;72.80;;;;;;5092362;28;20043;-84
2022/08/13 03:48:23;;;;;;;4.40;2.40;;;21.40;73.10;;;;;;5074650;28;20031;-83
2022/08/13 03:50:49;;;;;;;4.70;2.53;;;21.30;73.40;;;;;;5092100;28;20444;-84
2022/08/13 03:53:17;;;;;;;6.43;2.38;;;21.30;73.70;;;;;;5092349;28;20051;-85
2022/08/13 03:55:44;;;;;;;4.55;2.30;;;21.20;73.80;;;;;;5091936;28;20046;-85
2022/08/13 03:58:11;;;;;;;4.10;2.00;;;21.20;73.90;;;;;;5092478;28;20381;-85
2022/08/13 04:00:47;;;;;;;4.13;2.00;;;21.20;74.10;;;;;;5091768;28;20069;-85
2022/08/13 04:03:32;;;;;;;4.07;2.30;;;21.20;74.00;;;;;;5092004;28;20043;-85
2022/08/13 04:06:06;;;;;;;3.85;2.35;;;21.10;74.10;;;;;;5073644;28;20027;-86
2022/08/13 04:08:35;;;;;;;4.25;2.35;;;21.10;74.10;;;;;;5091969;28;20502;-86
2022/08/13 04:11:03;;;;;;;3.60;2.05;;;21.10;74.70;;;;;;5091702;28;20052;-85
2022/08/13 04:13:36;;;;;;;2.97;1.98;;;21.20;74.70;;;;;;5073857;28;20028;-85
2022/08/13 04:16:07;;;;;;;3.45;2.10;;;21.20;74.00;;;;;;5056890;28;20082;-83
2022/08/13 04:18:35;;;;;;;4.05;1.80;;;21.20;73.60;;;;;;5091670;28;20085;-82
2022/08/13 04:21:02;;;;;;;3.92;2.33;;;21.20;73.20;;;;;;5091776;28;20024;-82
2022/08/13 04:27:15;;;;;;;5.57;2.50;;;21.10;73.20;;;;;;5053130;28;20098;-87
2022/08/13 04:29:44;;;;;;;4.43;2.40;;;21.10;73.40;;;;;;5071267;28;20025;-84
2022/08/13 04:32:13;;;;;;;4.13;2.50;;;21.10;73.40;;;;;;5071035;28;20033;-88
2022/08/13 04:34:39;;;;;;;6.82;2.38;;;21.00;73.50;;;;;;5060978;28;20036;-85
2022/08/13 04:37:22;;;;;;;;;;;;;;;;;;;;;
2022/08/13 04:40:47;;;;;;;5.15;2.05;;;21.10;74.00;;;;;;5071882;28;20044;-88
2022/08/13 04:43:14;;;;;;;4.47;2.60;;;21.10;74.00;;;;;;4938501;28;20492;-88
2022/08/13 04:45:41;;;;;;;3.92;2.05;;;21.20;74.40;;;;;;4970546;28;20054;-88
2022/08/13 04:48:15;;;;;;;5.03;2.00;;;21.10;74.20;;;;;;5030369;28;20447;-88
2022/08/13 04:54:39;;;;;;;5.22;2.28;;;21.10;74.50;;;;;;4946225;28;20457;-86
2022/08/13 04:57:05;;;;;;;5.65;2.13;;;21.10;74.80;;;;;;4969747;28;20129;-90
2022/08/13 04:59:32;;;;;;;6.47;1.90;;;21.10;74.80;;;;;;5044162;28;20036;-91
2022/08/13 05:06:18;;;;;;;4.95;2.20;;;21.20;75.20;;;;;;5071337;28;20035;-85
2022/08/13 05:08:54;;;;;;;7.97;2.50;;;21.20;75.60;;;;;;5072551;28;20031;-93
2022/08/13 05:11:20;;;;;;;5.97;2.20;;;21.20;75.40;;;;;;5054803;23;20052;-66
2022/08/13 05:13:46;;;;;;;8.07;2.60;;;21.20;75.40;;;;;;5051181;28;20017;-66
2022/08/13 05:16:15;;;;;;;6.22;2.28;;;21.20;75.30;;;;;;5050861;28;20095;-65
2022/08/13 05:18:45;;;;;;;5.65;2.63;;;21.20;75.10;;;;;;5050707;28;20025;-64
2022/08/13 05:21:12;;;;;;;5.60;3.00;;;21.30;74.80;;;;;;5050397;28;20036;-66
2022/08/13 05:23:40;;;;;;;7.35;3.92;;;21.30;74.60;;;;;;5050987;28;20025;-66
2022/08/13 05:26:06;;;;;;;7.03;2.67;;;21.30;74.40;;;;;;5050517;28;20378;-66
2022/08/13 05:28:33;;;;;;;4.53;2.08;;;21.30;74.30;;;;;;5050326;28;20444;-65
2022/08/13 05:31:00;;;;;;;4.75;2.10;;;21.40;74.10;;;;;;5050190;28;20409;-66
2022/08/13 05:33:28;;;;;;;4.50;2.20;;;21.50;74.00;;;;;;5050711;28;20029;-65
2022/08/13 05:35:59;;;;;;;5.13;2.20;;;21.50;74.00;;;;;;5050842;28;20029;-64
2022/08/13 05:38:27;;;;;;;4.65;2.30;;;21.50;74.00;;;;;;5050861;28;20031;-65
2022/08/13 05:40:56;;;;;;;4.70;2.67;;;21.60;74.20;;;;;;5050444;28;20033;-67
2022/08/13 05:43:26;;;;;;;5.85;2.08;;;21.50;74.40;;;;;;5050846;28;20029;-65
2022/08/13 05:45:57;;;;;;;3.97;2.40;;;21.50;74.60;;;;;;5050486;28;20060;-65
2022/08/13 05:48:29;;;;;;;3.90;2.35;;;21.60;74.70;;;;;;5050498;28;20431;-66
2022/08/13 05:50:59;;;;;;;5.70;2.50;;;21.60;74.40;;;;;;5050525;28;20060;-66
2022/08/13 05:53:26;;;;;;;4.03;2.15;;;21.70;74.40;;;;;;5050703;28;20528;-66
2022/08/13 05:55:53;;;;;;;5.43;2.35;;;21.70;74.40;;;;;;5050751;28;20032;-65
2022/08/13 05:58:21;;;;;;;7.97;2.42;;;21.70;74.50;;;;;;5050420;28;20086;-66
2022/08/13 06:03:32;;;;;;;7.47;4.00;;;21.80;74.80;;;;;;5050760;28;20029;-65
2022/08/13 06:06:01;;;;;;;7.13;3.70;;;21.90;74.70;;;;;;5052302;28;20029;-65
2022/08/13 06:08:30;;;;;;;4.93;2.65;;;22.00;74.60;;;;;;5054227;28;20059;-65
2022/08/13 06:11:00;;;;;;;5.97;2.75;;;22.00;74.60;;;;;;5053732;28;20036;-65
2022/08/13 06:13:28;;;;;;;5.68;2.58;;;22.00;74.70;;;;;;5054123;28;20092;-66
2022/08/13 06:15:58;;;;;;;5.00;2.25;;;22.00;74.60;;;;;;5054083;28;20025;-65
2022/08/13 06:18:32;;;;;;;4.28;2.20;;;22.10;74.70;;;;;;5054038;28;20033;-65
2022/08/13 06:21:01;;;;;;;5.28;1.92;;;22.10;74.60;;;;;;5054021;28;20031;-66
2022/08/13 06:23:28;;;;;;;;;;;22.20;74.60;;;;;;5054400;28;20021;-66
2022/08/13 06:25:56;;;;;;;5.68;2.95;;;22.20;74.60;;;;;;5053971;28;19909;-66
2022/08/13 06:28:26;;;;;;;4.13;2.67;;;22.20;74.20;;;;;;5053973;28;20098;-65
2022/08/13 06:31:04;;;;;;;6.10;2.63;;;22.30;73.90;;;;;;5053557;28;20024;-65
2022/08/13 06:33:32;;;;;;;4.85;2.35;;;22.30;74.00;;;;;;5053788;28;20029;-66
2022/08/13 06:36:01;;;;;;;5.32;2.60;;;22.40;74.10;;;;;;5053713;28;20029;-66
2022/08/13 06:38:31;;;;;;;5.13;2.50;;;22.40;74.20;;;;;;5053639;28;20032;-65
2022/08/13 06:40:59;;;;;;;4.38;2.45;;;22.50;74.20;;;;;;5053461;28;20021;-66
2022/08/13 06:43:31;;;;;;;4.03;2.28;;;22.50;74.30;;;;;;5053723;28;20394;-65
2022/08/13 06:45:59;;;;;;;5.13;2.33;;;22.60;74.30;;;;;;5053420;28;20025;-66
2022/08/13 06:48:28;;;;;;;5.13;3.13;;;22.60;74.10;;;;;;5053443;28;20029;-66
2022/08/13 06:50:54;;;;;;;4.88;3.15;;;22.60;73.80;;;;;;5087027;22;20085;-77
2022/08/13 06:53:20;;;;;;;4.18;2.90;;;22.70;73.70;;;;;;5093052;28;20031;-77
2022/08/13 06:55:52;;;;;;;5.60;2.47;;;22.70;73.70;;;;;;5092897;28;20028;-77
2022/08/13 06:58:27;;;;;;;4.65;2.40;;;22.80;73.50;;;;;;5093003;28;20544;-77
2022/08/13 07:00:55;;;;;;;4.50;2.63;;;22.80;73.50;;;;;;5092726;28;20035;-77
2022/08/13 07:03:28;;;;;;;4.32;2.30;;;22.90;73.40;;;;;;5093111;28;20039;-77
2022/08/13 07:05:58;;;;;;;3.53;1.98;;;22.90;73.40;;;;;;5074609;28;20035;-77
2022/08/13 07:08:25;;;;;;;3.80;2.20;;;22.90;73.40;;;;;;5093040;28;20039;-77
2022/08/13 07:11:21;;;;;;;6.45;2.60;;;23.00;73.40;;;;;;5092691;28;20028;-77
2022/08/13 07:13:44;;;;;;;3.33;2.22;;;23.00;73.50;;;;;;5092926;28;20032;-77
2022/08/13 07:16:12;;;;;;;6.55;2.72;;;23.10;73.50;;;;;;5092564;28;20030;-77
2022/08/13 07:18:38;;;;;;;;;;;23.10;73.70;;;;;;5092931;28;20032;-77
2022/08/13 07:21:09;;;;;;;4.35;2.55;;;23.10;73.10;;;;;;5092446;28;19961;-77
2022/08/13 07:23:36;;;;;;;3.63;2.40;;;23.20;72.90;;;;;;5092584;28;20031;-77
2022/08/13 07:26:03;;;;;;;4.15;2.58;;;23.20;72.90;;;;;;5074482;28;20055;-77
2022/08/13 07:28:30;;;;;;;3.88;2.50;;;23.20;73.00;;;;;;5092649;28;20036;-77
2022/08/13 07:30:57;;;;;;;4.55;2.53;;;23.30;72.90;;;;;;5092219;28;20522;-77
2022/08/13 07:33:24;;;;;;;3.95;2.50;;;23.30;72.70;;;;;;5092674;28;20024;-77
2022/08/13 07:35:49;;;;;;;5.05;2.40;;;23.30;72.50;;;;;;5092244;28;20060;-76
2022/08/13 07:38:15;;;;;;;4.47;2.00;;;23.40;72.00;;;;;;5092415;28;20044;-77
2022/08/13 07:40:53;;;;;;;3.85;2.50;;;23.50;71.70;;;;;;5091799;28;20025;-77
2022/08/13 07:43:19;;;;;;;3.08;2.17;;;23.50;71.50;;;;;;5092201;28;20086;-77
2022/08/13 07:46:02;;;;;;;3.25;2.13;;;23.60;71.20;;;;;;5092090;28;20085;-77
2022/08/13 07:48:31;;;;;;;4.18;1.85;;;23.60;70.80;;;;;;5092111;28;20055;-76
2022/08/13 07:50:59;;;;;;;4.22;2.20;;;23.70;70.30;;;;;;5091727;28;20036;-77
2022/08/13 07:53:26;;;;;;;5.20;3.00;;;23.70;68.80;;;;;;5092144;28;20040;-76
2022/08/13 07:55:52;;;;;;;3.50;2.60;;;23.80;68.60;;;;;;5091924;28;20094;-77
2022/08/13 07:58:19;;;;;;;4.30;2.10;;;23.80;68.60;;;;;;5091874;28;20023;-77
2022/08/13 08:00:45;;;;;;;2.63;2.00;;;23.90;68.70;;;;;;5091592;28;20028;-77
2022/08/13 08:03:12;;;;;;;3.38;1.70;;;23.90;68.30;;;;;;5091800;28;20382;-77
2022/08/13 08:05:41;;;;;;;2.72;1.80;;;23.90;68.60;;;;;;5091470;28;20040;-77
2022/08/13 08:08:08;;;;;;;2.47;1.50;;;23.90;68.60;;;;;;5091975;28;20036;-77
2022/08/13 08:10:38;;;;;;;3.17;1.80;;;23.90;68.80;;;;;;5091489;28;20039;-77
2022/08/13 08:13:04;;;;;;;2.35;1.60;;;24.00;69.10;;;;;;5091618;28;20032;-77
2022/08/13 08:15:30;;;;;;;3.53;2.10;;;24.00;69.20;;;;;;5091780;28;20066;-77
2022/08/13 08:17:57;;;;;;;3.95;2.40;;;24.00;69.40;;;;;;5091322;28;20466;-77
2022/08/13 08:20:23;;;;;;;3.90;2.38;;;24.00;69.40;;;;;;5091114;28;20028;-77
2022/08/13 08:22:50;;;;;;;2.72;1.90;;;24.10;69.30;;;;;;5091858;28;20028;-77
2022/08/13 08:25:21;;;;;;;2.25;1.30;;;24.10;69.60;;;;;;5091553;28;20036;-77
2022/08/13 08:27:48;;;;;;;2.88;1.70;;;24.10;69.20;;;;;;5090675;28;20062;-77
2022/08/13 08:30:20;;;;;;;2.40;1.58;;;24.20;69.10;;;;;;5091124;28;20706;-77
2022/08/13 08:32:53;;;;;;;3.88;1.70;;;24.20;68.70;;;;;;5091149;28;20115;-77
2022/08/13 08:35:20;;;;;;;2.72;1.50;;;24.20;68.50;;;;;;5091435;28;20119;-77
2022/08/13 08:43:32;;;;;;;2.63;2.00;;;24.20;68.70;;;;;;5091169;28;20039;-77
2022/08/13 08:46:00;;;;;;;4.47;2.10;;;24.30;68.70;;;;;;5090929;28;20673;-77
2022/08/13 08:48:29;;;;;;;4.03;2.30;;;24.40;68.00;;;;;;5091245;28;20112;-77
2022/08/13 08:50:54;;;;;;;4.70;3.15;;;24.50;68.10;;;;;;5090675;28;20047;-76
2022/08/13 08:53:22;;;;;;;4.28;2.60;;;24.50;68.50;;;;;;5091026;28;20028;-77
2022/08/13 08:55:50;;;;;;;3.80;2.67;;;24.50;67.90;;;;;;5090773;28;20118;-77
2022/08/13 08:58:19;;;;;;;3.88;1.77;;;24.60;67.10;;;;;;5090939;28;20024;-77
2022/08/13 09:00:47;;;;;;;;;;;24.60;66.30;;;;;;5091298;28;20047;-78
2022/08/13 09:03:17;;;;;;;3.20;1.80;;;24.70;66.20;;;;;;5090991;28;20334;-78
2022/08/13 09:05:45;;;;;;;3.08;1.50;;;24.70;66.40;;;;;;5090697;28;20031;-78
2022/08/13 09:08:18;;;;;;;3.08;2.08;;;24.70;66.80;;;;;;5090777;28;20165;-78
2022/08/13 09:10:46;;;;;;;3.38;2.22;;;24.70;67.40;;;;;;5090366;28;20036;-78
2022/08/13 09:13:19;;;;;;;4.82;2.78;;;24.70;66.90;;;;;;5090904;28;20039;-78
2022/08/13 09:15:48;;;;;;;4.60;2.80;;;24.70;65.80;;;;;;5090604;28;20066;-78
2022/08/13 09:18:18;;;;;;;2.97;2.13;;;24.80;65.40;;;;;;5090774;28;20476;-78
2022/08/13 09:20:45;;;;;;;7.30;1.95;;;24.80;66.00;;;;;;5090415;28;20028;-78
2022/08/13 09:23:13;;;;;;;2.88;1.70;;;24.90;65.20;;;;;;5090721;28;20020;-78
2022/08/13 09:25:46;;;;;;;2.80;1.88;;;24.90;64.80;;;;;;5090438;28;20085;-78
2022/08/13 09:28:12;;;;;;;3.28;2.33;;;24.90;65.30;;;;;;5073760;28;20040;-78
2022/08/13 09:30:42;;;;;;;4.25;2.53;;;25.00;65.20;;;;;;5090328;28;20081;-78
2022/08/13 09:33:09;;;;;;;5.25;2.25;;;24.90;64.80;;;;;;5090453;28;20032;-78
2022/08/13 09:35:35;;;;;;;5.25;2.20;;;25.00;64.90;;;;;;5090536;28;20028;-78
2022/08/13 09:38:06;;;;;;;9.02;3.72;;;25.00;65.20;;;;;;5090674;28;20070;-78
2022/08/13 09:40:33;;;;;;;8.95;3.40;;;25.00;66.30;;;;;;5094190;28;20044;-78
2022/08/13 09:43:02;;;;;;;8.02;2.88;;;24.90;66.60;;;;;;5094552;28;20388;-78
2022/08/13 09:45:30;;;;;;;6.18;2.30;;;24.90;65.90;;;;;;5094504;28;20024;-78
2022/08/13 09:47:57;;;;;;;3.50;2.22;;;24.90;65.40;;;;;;5094168;28;20035;-78
2022/08/13 09:50:25;;;;;;;3.67;2.45;;;24.90;64.60;;;;;;5094050;28;20032;-79
2022/08/13 09:52:53;;;;;;;3.28;2.17;;;25.00;63.70;;;;;;5094441;28;20369;-78
2022/08/13 09:55:23;;;;;;;5.17;2.90;;;25.00;63.20;;;;;;5094385;28;20028;-78
2022/08/13 09:57:53;;;;;;;2.85;2.13;;;25.10;63.00;;;;;;5094073;28;20327;-78
2022/08/13 10:00:22;;;;;;;5.38;2.00;;;25.10;62.70;;;;;;5093794;28;20036;-78
2022/08/13 10:02:56;;;;;;;2.60;1.65;;;25.20;62.50;;;;;;5094205;28;20028;-78
2022/08/13 10:05:21;;;;;;;3.67;1.85;;;25.30;61.80;;;;;;5094463;28;20423;-78
2022/08/13 10:07:47;;;;;;;2.25;1.50;;;25.30;62.50;;;;;;5094179;28;20040;-78
2022/08/13 10:10:14;;;;;;;4.10;2.00;;;25.30;61.90;;;;;;5093838;28;20032;-78
2022/08/13 10:12:41;;;;;;;1.95;1.60;;;25.40;61.60;;;;;;5094007;28;20028;-78
2022/08/13 10:15:12;;;;;;;2.72;1.52;;;25.50;61.50;;;;;;5094036;28;20073;-78
2022/08/13 10:17:50;;;;;;;2.42;1.70;;;25.50;61.80;;;;;;5093779;28;20063;-79
2022/08/13 10:20:24;;;;;;;3.33;1.90;;;25.50;61.90;;;;;;5093591;28;20028;-78
2022/08/13 10:22:52;;;;;;;2.70;1.58;;;25.50;61.90;;;;;;5093919;28;20274;-78
2022/08/13 10:25:18;;;;;;;1.80;1.50;;;25.50;61.40;;;;;;5093808;28;20028;-78
2022/08/13 10:27:47;;;;;;;2.80;1.95;;;25.50;61.90;;;;;;5093458;28;20028;-78
2022/08/13 10:30:14;;;;;;;3.55;1.90;;;25.50;61.90;;;;;;5093495;28;20403;-78
2022/08/13 10:32:40;;;;;;;4.45;1.73;;;25.50;61.30;;;;;;5075362;28;20043;-78
2022/08/13 10:35:06;;;;;;;2.35;1.80;;;25.50;61.70;;;;;;5093682;28;20066;-78
2022/08/13 10:37:34;;;;;;;3.63;2.28;;;25.60;61.80;;;;;;5093273;28;20475;-79
2022/08/13 10:40:00;;;;;;;3.85;2.65;;;25.70;61.60;;;;;;5093472;28;20020;-78
2022/08/13 10:42:27;;;;;;;4.82;3.58;;;25.70;62.50;;;;;;5093555;28;20048;-78
2022/08/13 10:44:52;;;;;;;8.52;3.40;;;25.80;60.80;;;;;;5075374;28;20028;-78
2022/08/13 10:47:20;;;;;;;5.90;3.13;;;25.90;60.40;;;;;;5093189;28;20099;-79
2022/08/13 10:49:49;;;;;;;5.18;2.65;;;25.90;60.90;;;;;;5092688;28;20028;-79
2022/08/13 10:52:20;;;;;;;3.50;2.47;;;26.00;60.40;;;;;;5092833;28;20043;-77
2022/08/13 10:54:47;;;;;;;7.85;2.85;;;26.00;59.60;;;;;;5075149;28;20123;-78
2022/08/13 10:57:14;;;;;;;3.92;2.40;;;26.20;59.40;;;;;;5093302;28;20024;-78
2022/08/13 10:59:43;;;;;;;3.58;1.67;;;26.20;59.50;;;;;;5092939;28;20020;-78
2022/08/13 11:02:10;;;;;;;2.97;2.13;;;26.20;59.60;;;;;;5093014;28;20031;-77
2022/08/13 11:04:37;;;;;;;2.97;2.05;;;26.20;59.90;;;;;;5093069;28;20044;-78
2022/08/13 11:07:11;;;;;;;3.22;1.77;;;26.10;59.50;;;;;;5074624;28;20103;-77
2022/08/13 11:09:37;;;;;;;1.95;1.70;;;26.20;59.80;;;;;;5092593;28;20032;-77
2022/08/13 11:12:07;;;;;;;2.50;1.70;;;26.20;59.40;;;;;;5093048;28;20043;-78
2022/08/13 11:14:33;;;;;;;3.15;1.80;;;26.30;59.40;;;;;;5092981;28;20016;-78
2022/08/13 11:16:59;;;;;;;3.38;2.03;;;26.20;59.60;;;;;;5092603;28;20391;-78
2022/08/13 11:19:28;;;;;;;2.38;1.90;;;26.20;59.40;;;;;;5092516;28;20536;-78
2022/08/13 11:21:55;;;;;;;2.75;1.90;;;26.30;60.00;;;;;;5092627;28;20035;-77
2022/08/13 11:24:20;;;;;;;4.75;2.58;;;26.30;59.80;;;;;;5092685;28;20031;-78
2022/08/13 11:26:47;;;;;;;3.88;2.20;;;26.20;60.30;;;;;;5092484;28;20031;-78
2022/08/13 11:29:14;;;;;;;3.22;2.10;;;26.10;61.90;;;;;;5092295;28;20408;-78
2022/08/13 11:31:40;;;;;;;2.70;2.03;;;26.00;59.90;;;;;;5074225;28;20046;-78
2022/08/13 11:34:06;;;;;;;2.60;2.20;;;26.10;60.40;;;;;;5092393;28;20552;-78
2022/08/13 11:36:32;;;;;;;7.72;3.08;;;26.10;59.30;;;;;;5092184;28;20028;-77
2022/08/13 11:38:58;;;;;;;4.75;2.30;;;26.20;58.60;;;;;;5092118;28;20028;-78
2022/08/13 11:41:24;;;;;;;6.95;4.07;;;26.20;59.10;;;;;;5092424;28;20032;-78
2022/08/13 11:43:54;;;;;;;6.57;4.35;;;26.20;59.40;;;;;;5074099;28;20024;-78
2022/08/13 11:46:20;;;;;;;4.90;2.13;;;26.20;59.60;;;;;;5091978;28;20146;-78
2022/08/13 11:48:47;;;;;;;5.30;3.25;;;26.20;58.00;;;;;;5091896;28;20380;-78
2022/08/13 11:51:13;;;;;;;4.85;3.42;;;26.30;58.40;;;;;;5091692;28;20123;-78
2022/08/13 11:53:39;;;;;;;3.60;2.50;;;26.30;58.50;;;;;;5092204;28;20157;-78
2022/08/13 11:56:05;;;;;;;3.05;2.20;;;26.30;58.80;;;;;;5091804;28;20054;-78
2022/08/13 11:58:33;;;;;;;4.55;2.58;;;26.40;59.60;;;;;;5091762;28;20069;-78
2022/08/13 12:00:59;;;;;;;3.40;2.15;;;26.40;58.40;;;;;;5073490;28;20048;-78
2022/08/13 12:03:25;;;;;;;3.08;2.08;;;26.50;57.50;;;;;;5090969;28;20097;-78
2022/08/13 12:05:51;;;;;;;2.67;1.80;;;26.60;57.20;;;;;;5091756;28;20059;-78
2022/08/13 12:08:19;;;;;;;4.80;2.33;;;26.70;56.70;;;;;;5091952;28;20062;-78
2022/08/13 12:10:45;;;;;;;3.83;2.30;;;26.70;57.30;;;;;;5091311;28;20507;-78
2022/08/13 12:13:11;;;;;;;1.95;1.65;;;26.60;57.60;;;;;;5091587;28;20070;-77
2022/08/13 12:15:37;;;;;;;2.75;2.10;;;26.60;58.30;;;;;;5091793;28;20056;-78
2022/08/13 12:18:03;;;;;;;3.03;2.13;;;26.60;57.60;;;;;;5091626;28;20077;-78
2022/08/13 12:20:29;;;;;;;2.67;1.70;;;26.60;57.70;;;;;;5091509;28;20032;-78
2022/08/13 12:22:58;;;;;;;2.08;1.58;;;26.60;56.80;;;;;;5091506;28;20043;-77
2022/08/13 12:25:26;;;;;;;5.80;2.42;;;26.50;57.20;;;;;;5091584;28;20032;-78
2022/08/13 12:28:26;;;;;;;7.85;4.03;;;26.60;57.70;;;;;;5091263;28;20032;-78
2022/08/13 12:30:57;;;;;;;2.85;1.90;;;26.70;57.00;;;;;;5091207;28;20385;-78
2022/08/13 12:33:26;;;;;;;5.85;2.38;;;26.90;56.70;;;;;;5091363;28;20115;-78
2022/08/13 12:35:52;;;;;;;3.83;2.20;;;26.90;57.10;;;;;;5091148;28;20056;-78
2022/08/13 12:38:18;;;;;;;4.63;2.13;;;26.90;57.50;;;;;;5091328;28;20040;-78
2022/08/13 12:40:45;;;;;;;2.08;1.70;;;27.00;57.00;;;;;;5090826;28;20028;-78
2022/08/13 12:43:11;;;;;;;2.47;1.70;;;26.90;56.30;;;;;;5091385;28;20028;-78
2022/08/13 12:45:38;;;;;;;3.20;1.40;;;26.90;57.00;;;;;;5056148;28;20039;-77
2022/08/13 12:48:12;;;;;;;2.77;1.93;;;26.80;57.00;;;;;;5091217;28;20032;-78
2022/08/13 12:53:19;;;;;;;2.15;1.50;;;26.80;55.90;;;;;;5049244;28;20044;-65
2022/08/13 12:55:45;;;;;;;2.08;1.45;;;26.80;54.80;;;;;;5050883;28;20029;-66
2022/08/13 12:58:26;;;;;;;2.00;1.70;;;26.80;55.30;;;;;;5051133;28;20025;-66
2022/08/13 13:00:54;;;;;;;2.65;1.70;;;26.80;55.90;;;;;;5050833;28;20051;-66
2022/08/13 13:03:21;;;;;;;3.08;1.88;;;26.90;55.70;;;;;;5051118;28;20040;-65
2022/08/13 13:05:50;;;;;;;2.65;1.90;;;27.00;55.40;;;;;;5050960;28;20029;-67
2022/08/13 13:08:22;;;;;;;2.42;1.50;;;27.10;55.10;;;;;;5050964;28;20033;-65
2022/08/13 13:10:50;;;;;;;2.80;2.10;;;27.20;55.00;;;;;;5050642;28;20049;-66
2022/08/13 13:13:23;;;;;;;4.30;1.98;;;27.30;54.50;;;;;;5066132;28;20037;-68
2022/08/13 13:15:50;;;;;;;4.05;1.77;;;27.30;54.40;;;;;;5050734;28;20033;-66
2022/08/13 13:18:18;;;;;;;1.90;1.50;;;27.30;54.60;;;;;;5050812;28;20032;-66
2022/08/13 13:20:45;;;;;;;3.15;1.63;;;27.30;54.70;;;;;;5050581;28;20477;-66
2022/08/13 13:23:14;;;;;;;3.22;1.60;;;27.30;54.50;;;;;;5050977;28;20033;-66
2022/08/13 13:25:43;;;;;;;2.17;1.35;;;27.30;54.70;;;;;;5050801;28;20036;-66
2022/08/13 13:28:15;;;;;;;2.13;1.42;;;27.30;54.40;;;;;;5050810;28;20378;-67
2022/08/13 13:30:44;;;;;;;1.80;1.33;;;27.30;54.70;;;;;;5050495;28;20039;-65
2022/08/13 13:33:12;;;;;;;2.78;1.50;;;27.30;54.20;;;;;;5050701;28;20025;-65